Time;durP1;ratioP1;P1;durP2;ratioP2;P2;SDS_P1;SDS_P2;PMS_P1;PMS_P2;Temp;Humidity;BMP_temperature;BMP_pressure;BME280_temperature;BME280_humidity;BME280_pressure;Samples;Min_cycle;Max_cycle;Signal;HPM_P1;HPM_P2
2022/04/05 00:01:33;;;;;;;30.42;15.43;;;;;;;9.27;100.00;100353.75;5030872;28;20044;-74
2022/04/05 00:03:59;;;;;;;28.05;13.77;;;;;;;9.26;100.00;100354.00;5037269;28;20054;-70
2022/04/05 00:06:24;;;;;;;27.08;14.48;;;;;;;9.20;100.00;100359.22;5042892;28;20043;-70
2022/04/05 00:08:49;;;;;;;24.67;13.50;;;;;;;9.28;100.00;100357.28;5037826;28;20029;-74
2022/04/05 00:11:15;;;;;;;26.70;14.48;;;;;;;9.19;100.00;100360.31;5032679;28;20045;-73
2022/04/05 00:13:40;;;;;;;28.25;14.07;;;;;;;9.18;100.00;100357.84;5032186;28;20040;-71
2022/04/05 00:16:06;;;;;;;31.30;14.60;;;;;;;9.22;100.00;100359.00;5032320;28;20033;-73
2022/04/05 00:18:31;;;;;;;24.90;14.07;;;;;;;9.15;100.00;100360.97;5031156;28;20036;-71
2022/04/05 00:20:56;;;;;;;23.88;13.52;;;;;;;9.13;100.00;100360.38;5031925;28;20064;-74
2022/04/05 00:23:22;;;;;;;23.98;12.90;;;;;;;9.15;100.00;100358.25;5032131;28;20032;-72
2022/04/05 00:25:47;;;;;;;24.52;13.07;;;;;;;9.13;100.00;100361.19;5031119;28;20087;-75
2022/04/05 00:28:13;;;;;;;29.55;13.90;;;;;;;9.12;100.00;100358.72;5032568;28;20041;-72
2022/04/05 00:30:38;;;;;;;23.90;12.32;;;;;;;9.12;100.00;100364.13;5032263;28;20064;-75
2022/04/05 00:33:03;;;;;;;25.48;12.20;;;;;;;9.13;100.00;100358.50;5032592;28;20037;-74
2022/04/05 00:35:29;;;;;;;29.42;14.20;;;;;;;9.05;100.00;100356.94;5032362;28;20358;-72
2022/04/05 00:37:54;;;;;;;34.47;13.57;;;;;;;9.09;100.00;100362.72;5032301;28;20024;-77
2022/04/05 00:40:20;;;;;;;29.00;14.43;;;;;;;9.07;100.00;100358.59;5032365;28;20488;-72
2022/04/05 00:42:45;;;;;;;28.92;14.55;;;;;;;9.05;100.00;100364.22;5032022;28;20025;-71
2022/04/05 00:45:11;;;;;;;27.08;13.15;;;;;;;9.08;100.00;100361.06;5032144;28;20465;-74
2022/04/05 00:47:37;;;;;;;30.17;13.38;;;;;;;9.09;100.00;100351.91;5034915;28;20037;-72
2022/04/05 00:50:04;;;;;;;27.52;13.63;;;;;;;9.05;100.00;100359.63;5036180;28;20033;-72
2022/04/05 00:52:30;;;;;;;26.27;12.48;;;;;;;9.09;100.00;100362.72;5036176;28;20034;-76
2022/04/05 00:54:58;;;;;;;27.13;13.40;;;;;;;9.04;100.00;100360.69;5034451;28;20031;-74
2022/04/05 00:57:24;;;;;;;27.60;14.23;;;;;;;9.08;100.00;100362.94;5034502;28;20033;-74
2022/04/05 00:59:55;;;;;;;24.00;13.48;;;;;;;9.03;100.00;100363.63;5034304;28;20030;-74
2022/04/05 01:02:21;;;;;;;27.92;13.63;;;;;;;9.05;100.00;100359.63;5033266;28;20132;-71
2022/04/05 01:04:48;;;;;;;24.30;14.40;;;;;;;9.00;100.00;100359.50;5035436;28;20029;-72
2022/04/05 01:07:15;;;;;;;29.27;15.30;;;;;;;9.02;100.00;100365.47;5034373;28;20115;-75
2022/04/05 01:09:41;;;;;;;28.10;14.25;;;;;;;9.02;100.00;100362.78;5034162;28;20026;-73
2022/04/05 01:12:09;;;;;;;29.15;14.98;;;;;;;8.99;100.00;100365.94;5034270;28;20103;-75
2022/04/05 01:14:34;;;;;;;31.25;14.77;;;;;;;9.04;100.00;100368.78;5035438;28;20497;-70
2022/04/05 01:17:00;;;;;;;26.63;14.48;;;;;;;9.00;100.00;100364.88;5033998;28;20025;-70
2022/04/05 01:19:26;;;;;;;29.50;15.43;;;;;;;9.05;100.00;100362.31;5035152;28;20087;-75
2022/04/05 01:21:51;;;;;;;31.70;15.25;;;;;;;8.99;100.00;100365.13;5034951;28;20076;-73
2022/04/05 01:24:17;;;;;;;24.60;13.07;;;;;;;9.01;100.00;100369.25;5034063;28;20065;-74
2022/04/05 01:26:49;;;;;;;29.77;14.98;;;;;;;9.02;100.00;100370.88;5035135;28;20037;-72
2022/04/05 01:29:16;;;;;;;26.35;13.98;;;;;;;8.97;100.00;100368.03;5035234;28;20037;-74
2022/04/05 01:31:44;;;;;;;26.90;13.98;;;;;;;9.01;100.00;100371.09;5033756;28;20060;-72
2022/04/05 01:34:11;;;;;;;26.60;14.68;;;;;;;8.98;100.00;100377.81;5017857;28;20057;-75
2022/04/05 01:36:41;;;;;;;29.35;15.23;;;;;;;9.01;100.00;100373.81;5035169;28;20033;-71
2022/04/05 01:39:07;;;;;;;29.20;15.15;;;;;;;8.97;100.00;100378.03;5035202;28;20472;-74
2022/04/05 01:41:32;;;;;;;26.75;15.40;;;;;;;8.96;100.00;100381.75;5035031;28;20029;-76
2022/04/05 01:43:57;;;;;;;31.27;14.63;;;;;;;8.98;100.00;100374.25;5034999;28;20452;-73
2022/04/05 01:46:23;;;;;;;33.38;14.98;;;;;;;8.95;100.00;100372.00;5035145;28;20035;-71
2022/04/05 01:48:48;;;;;;;28.35;13.77;;;;;;;9.01;100.00;100377.34;5034813;28;20554;-73
2022/04/05 01:51:14;;;;;;;29.02;14.57;;;;;;;8.98;100.00;100372.41;5034823;28;20061;-76
2022/04/05 01:53:39;;;;;;;27.77;13.35;;;;;;;8.98;100.00;100368.84;5033744;28;20029;-74
2022/04/05 01:56:04;;;;;;;32.45;14.18;;;;;;;8.99;100.00;100381.31;5034738;28;20037;-73
2022/04/05 01:58:30;;;;;;;34.08;14.48;;;;;;;8.95;100.00;100374.72;5034773;28;20528;-71
2022/04/05 02:00:55;;;;;;;28.85;12.95;;;;;;;8.96;100.00;100377.19;5031960;28;20033;-74
2022/04/05 02:03:20;;;;;;;23.10;12.48;;;;;;;8.97;100.00;100372.63;5034676;28;20046;-75
2022/04/05 02:05:48;;;;;;;22.92;12.65;;;;;;;8.95;100.00;100372.00;5034781;28;20066;-74
2022/04/05 02:08:13;;;;;;;25.27;13.40;;;;;;;8.92;100.00;100373.28;5034549;28;20040;-72
2022/04/05 02:10:39;;;;;;;24.38;13.13;;;;;;;8.93;100.00;100371.41;5034416;28;20022;-76
2022/04/05 02:13:04;;;;;;;21.60;12.82;;;;;;;8.92;100.00;100369.75;5033018;28;20068;-71
2022/04/05 02:15:30;;;;;;;21.48;12.48;;;;;;;8.94;100.00;100378.47;5034571;28;20029;-76
2022/04/05 02:17:55;;;;;;;23.52;12.35;;;;;;;8.93;100.00;100374.94;5016261;28;20033;-73
2022/04/05 02:20:20;;;;;;;22.45;12.20;;;;;;;8.89;100.00;100372.91;5043390;28;20061;-74
2022/04/05 02:22:45;;;;;;;20.70;11.90;;;;;;;8.90;100.00;100372.69;5053993;28;20039;-75
2022/04/05 02:25:11;;;;;;;22.45;11.95;;;;;;;8.95;100.00;100374.72;5048881;28;20087;-72
2022/04/05 02:27:41;;;;;;;23.98;12.60;;;;;;;8.92;100.00;100375.16;5034315;28;20104;-73
2022/04/05 02:30:06;;;;;;;24.50;12.32;;;;;;;8.92;100.00;100375.16;5034126;28;20056;-71
2022/04/05 02:32:32;;;;;;;19.65;12.10;;;;;;;8.93;100.00;100376.81;5033785;28;20110;-71
2022/04/05 02:34:57;;;;;;;26.92;12.80;;;;;;;8.95;100.00;100380.94;5054134;28;20036;-76
2022/04/05 02:37:22;;;;;;;20.85;11.75;;;;;;;8.92;100.00;100370.56;5052594;28;20025;-75
2022/04/05 02:39:48;;;;;;;21.23;12.30;;;;;;;8.92;100.00;100381.38;5053855;28;20395;-75
2022/04/05 02:42:13;;;;;;;26.70;13.18;;;;;;;8.92;100.00;100375.97;5052738;28;20036;-78
2022/04/05 02:44:38;;;;;;;27.20;13.52;;;;;;;8.92;100.00;100369.75;5053843;28;20029;-75
2022/04/05 02:47:04;;;;;;;24.08;12.43;;;;;;;8.94;100.00;100376.59;5053749;28;20086;-77
2022/04/05 02:49:29;;;;;;;21.75;12.27;;;;;;;8.91;100.00;100374.34;5053861;28;20496;-78
2022/04/05 02:51:55;;;;;;;22.10;13.05;;;;;;;8.93;100.00;100372.22;5053538;28;20029;-74
2022/04/05 02:54:20;;;;;;;26.45;13.20;;;;;;;8.92;100.00;100372.47;5053700;28;20465;-79
2022/04/05 02:56:45;;;;;;;22.25;13.20;;;;;;;8.89;100.00;100375.63;5053154;28;20086;-76
2022/04/05 02:59:11;;;;;;;27.17;13.50;;;;;;;8.89;100.00;100368.34;5053553;28;20032;-76
2022/04/05 03:01:37;;;;;;;24.02;13.73;;;;;;;8.90;100.00;100370.00;5050075;28;20029;-75
2022/04/05 03:04:02;;;;;;;25.13;13.80;;;;;;;8.88;100.00;100364.00;5052022;28;20053;-78
2022/04/05 03:06:27;;;;;;;25.10;14.40;;;;;;;8.88;100.00;100366.69;5035555;28;20473;-77
2022/04/05 03:08:56;;;;;;;22.80;12.80;;;;;;;8.92;100.00;100369.75;5052555;28;20077;-73
2022/04/05 03:11:22;;;;;;;26.77;13.13;;;;;;;8.88;100.00;100372.09;5053387;28;20029;-76
2022/04/05 03:13:47;;;;;;;24.75;13.43;;;;;;;8.87;100.00;100371.25;5051764;28;20540;-76
2022/04/05 03:16:12;;;;;;;25.42;13.27;;;;;;;8.91;100.00;100371.66;5052084;28;20025;-77
2022/04/05 03:18:38;;;;;;;24.85;13.35;;;;;;;8.89;100.00;100371.03;5053637;28;20025;-78
2022/04/05 03:21:04;;;;;;;27.02;13.27;;;;;;;8.92;100.00;100384.06;5051931;28;20119;-76
2022/04/05 03:23:29;;;;;;;25.45;13.27;;;;;;;8.89;100.00;100373.72;5052803;28;20107;-76
2022/04/05 03:25:54;;;;;;;26.48;13.25;;;;;;;8.87;100.00;100373.97;5052854;28;20039;-76
2022/04/05 03:28:20;;;;;;;26.08;13.63;;;;;;;8.89;100.00;100371.03;5052010;28;20033;-78
2022/04/05 03:30:47;;;;;;;24.45;13.23;;;;;;;8.92;100.00;100377.84;5053035;28;20029;-74
2022/04/05 03:33:13;;;;;;;22.33;12.85;;;;;;;8.91;100.00;100370.81;5053009;28;20032;-78
2022/04/05 03:35:38;;;;;;;23.88;12.85;;;;;;;8.89;100.00;100372.91;5051827;28;20440;-76
2022/04/05 03:38:03;;;;;;;24.23;13.77;;;;;;;8.88;100.00;100374.81;5052893;28;20049;-75
2022/04/05 03:40:29;;;;;;;22.98;13.75;;;;;;;8.89;100.00;100368.34;5052914;28;20074;-78
2022/04/05 03:42:54;;;;;;;26.05;12.48;;;;;;;8.89;100.00;100368.34;5052925;28;20032;-76
2022/04/05 03:45:21;;;;;;;22.73;12.27;;;;;;;8.91;100.00;100371.66;5052902;28;20029;-75
2022/04/05 03:47:47;;;;;;;21.83;12.48;;;;;;;8.87;100.00;100367.75;5052614;28;20032;-79
2022/04/05 03:50:12;;;;;;;23.33;12.88;;;;;;;8.87;100.00;100371.25;5052911;28;20380;-77
2022/04/05 03:52:37;;;;;;;20.80;12.18;;;;;;;8.87;100.00;100365.03;5052624;28;20369;-78
2022/04/05 03:55:03;;;;;;;19.15;12.10;;;;;;;8.88;100.00;100372.09;5051366;28;20453;-75
2022/04/05 03:57:28;;;;;;;19.98;11.90;;;;;;;8.85;100.00;100369.84;5051717;28;20037;-77
2022/04/05 03:59:54;;;;;;;20.50;11.98;;;;;;;8.87;100.00;100368.56;5052817;28;20040;-78
2022/04/05 04:02:19;;;;;;;24.05;12.20;;;;;;;8.87;100.00;100367.75;5052411;28;20388;-74
2022/04/05 04:04:44;;;;;;;20.25;12.30;;;;;;;8.83;100.00;100367.38;5062565;28;20033;-74
2022/04/05 04:07:09;;;;;;;19.90;11.80;;;;;;;8.85;100.00;100362.56;5058669;28;20103;-76
2022/04/05 04:09:34;;;;;;;21.88;11.75;;;;;;;8.85;100.00;100361.75;5051292;28;20037;-77
2022/04/05 04:12:00;;;;;;;23.08;12.45;;;;;;;8.84;100.00;100362.81;5052177;28;20033;-78
2022/04/05 04:14:25;;;;;;;23.73;12.38;;;;;;;8.87;100.00;100362.34;5051382;28;20025;-75
2022/04/05 04:16:50;;;;;;;24.23;12.02;;;;;;;8.85;100.00;100365.28;5050914;28;20116;-79
2022/04/05 04:19:16;;;;;;;21.77;11.80;;;;;;;8.85;100.00;100364.47;5052503;28;20025;-79
2022/04/05 04:21:41;;;;;;;22.15;12.10;;;;;;;8.85;100.00;100356.38;5056646;28;20087;-79
2022/04/05 04:24:07;;;;;;;25.15;11.73;;;;;;;8.84;100.00;100363.63;5055927;28;20051;-76
2022/04/05 04:26:32;;;;;;;19.42;11.90;;;;;;;8.89;100.00;100368.34;5055047;28;20032;-77
2022/04/05 04:29:02;;;;;;;22.15;12.15;;;;;;;8.84;100.00;100369.00;5056246;28;20108;-75
2022/04/05 04:31:27;;;;;;;24.33;12.05;;;;;;;8.85;100.00;100367.16;5056255;28;20456;-77
2022/04/05 04:33:53;;;;;;;21.15;12.38;;;;;;;8.87;100.00;100368.56;5054842;28;20075;-79
2022/04/05 04:36:18;;;;;;;20.42;11.63;;;;;;;8.84;100.00;100357.41;5056300;28;20120;-74
2022/04/05 04:38:45;;;;;;;20.45;11.68;;;;;;;8.83;100.00;100363.84;5055950;28;20033;-73
2022/04/05 04:41:11;;;;;;;19.90;11.80;;;;;;;8.85;100.00;100364.47;5054918;28;20461;-76
2022/04/05 04:43:37;;;;;;;19.60;12.02;;;;;;;8.85;100.00;100365.28;5056386;28;20031;-76
2022/04/05 04:46:02;;;;;;;19.17;11.73;;;;;;;8.82;100.00;100371.13;5056116;28;20453;-76
2022/04/05 04:48:28;;;;;;;19.48;12.23;;;;;;;8.86;100.00;100374.19;5056065;28;20083;-77
2022/04/05 04:50:53;;;;;;;20.33;11.70;;;;;;;8.85;100.00;100365.28;5055996;28;20435;-74
2022/04/05 04:53:18;;;;;;;20.13;11.90;;;;;;;8.81;100.00;100368.66;5056127;28;20028;-77
2022/04/05 04:55:44;;;;;;;21.48;12.05;;;;;;;8.87;100.00;100373.16;5055872;28;20021;-76
2022/04/05 04:58:09;;;;;;;16.58;12.18;;;;;;;8.82;100.00;100373.81;5055681;28;20028;-75
2022/04/05 05:00:34;;;;;;;19.65;11.82;;;;;;;8.81;100.00;100374.84;5053572;28;20064;-77
2022/04/05 05:03:00;;;;;;;19.90;12.05;;;;;;;8.82;100.00;100378.41;5054045;28;20052;-74
2022/04/05 05:05:25;;;;;;;19.55;11.48;;;;;;;8.86;100.00;100374.19;5054401;28;20475;-75
2022/04/05 05:07:52;;;;;;;20.80;12.35;;;;;;;8.85;100.00;100373.38;5055696;28;20036;-74
2022/04/05 05:10:19;;;;;;;19.88;12.75;;;;;;;8.80;100.00;100365.13;5054184;28;20414;-74
2022/04/05 05:12:45;;;;;;;18.92;11.63;;;;;;;8.81;100.00;100374.03;5055562;28;20029;-77
2022/04/05 05:15:15;;;;;;;17.08;11.93;;;;;;;8.79;100.00;100381.56;5055460;28;20036;-76
2022/04/05 05:17:41;;;;;;;18.25;12.20;;;;;;;8.83;100.00;100380.03;5055405;28;20468;-76
2022/04/05 05:20:08;;;;;;;17.13;11.15;;;;;;;8.86;100.00;100379.56;5055607;28;20029;-76
2022/04/05 05:22:34;;;;;;;18.42;12.18;;;;;;;8.79;100.00;100381.56;5055726;28;20478;-75
2022/04/05 05:24:59;;;;;;;17.45;11.43;;;;;;;8.84;100.00;100384.38;5054783;28;20053;-74
2022/04/05 05:27:24;;;;;;;17.90;11.82;;;;;;;8.82;100.00;100386.50;5055117;28;20100;-75
2022/04/05 05:29:50;;;;;;;17.92;12.32;;;;;;;8.81;100.00;100384.84;5053949;28;20124;-78
2022/04/05 05:32:15;;;;;;;17.20;11.20;;;;;;;8.84;100.00;100389.78;5054426;28;20047;-75
2022/04/05 05:34:41;;;;;;;18.30;12.05;;;;;;;8.82;100.00;100383.78;5055043;28;20095;-77
2022/04/05 05:37:06;;;;;;;17.70;12.27;;;;;;;8.81;100.00;100385.66;5053614;28;20142;-77
2022/04/05 05:39:32;;;;;;;17.83;12.15;;;;;;;8.81;100.00;100390.22;5054160;28;20373;-77
2022/04/05 05:41:58;;;;;;;15.52;12.05;;;;;;;8.78;100.00;100388.00;5055423;28;20120;-77
2022/04/05 05:44:24;;;;;;;19.52;12.73;;;;;;;8.77;100.00;100386.31;5053748;28;20060;-78
2022/04/05 05:46:50;;;;;;;19.20;12.40;;;;;;;8.82;100.00;100392.72;5053950;28;20075;-76
2022/04/05 05:49:15;;;;;;;20.15;13.23;;;;;;;8.77;100.00;100397.97;5053681;28;20388;-74
2022/04/05 05:51:41;;;;;;;20.55;13.27;;;;;;;8.79;100.00;100398.56;5055116;28;20029;-77
2022/04/05 05:54:06;;;;;;;20.65;13.65;;;;;;;8.79;100.00;100395.84;5055013;28;20028;-77
2022/04/05 05:56:32;;;;;;;19.45;12.75;;;;;;;8.81;100.00;100396.44;5055125;28;20040;-74
2022/04/05 05:58:57;;;;;;;21.17;14.00;;;;;;;8.80;100.00;100402.91;5054956;28;20032;-79
2022/04/05 06:01:23;;;;;;;22.08;14.07;;;;;;;8.78;100.00;100407.69;5052723;28;20029;-73
2022/04/05 06:03:49;;;;;;;23.15;14.30;;;;;;;8.79;100.00;100408.53;5053179;28;20453;-79
2022/04/05 06:06:14;;;;;;;22.58;14.05;;;;;;;8.79;100.00;100411.22;5055008;28;20060;-79
2022/04/05 06:08:40;;;;;;;21.63;14.27;;;;;;;8.79;100.00;100411.22;5054829;28;20067;-77
2022/04/05 06:11:07;;;;;;;20.65;13.25;;;;;;;8.78;100.00;100402.28;5054417;28;20075;-77
2022/04/05 06:13:33;;;;;;;22.67;13.15;;;;;;;8.78;100.00;100398.78;5053740;28;20419;-76
2022/04/05 06:15:58;;;;;;;26.27;13.75;;;;;;;8.81;100.00;100412.63;5054222;28;20029;-77
2022/04/05 06:18:23;;;;;;;26.73;13.93;;;;;;;8.79;100.00;100414.75;5036642;28;20392;-78
2022/04/05 06:20:49;;;;;;;22.08;12.75;;;;;;;8.83;100.00;100412.41;5054044;28;20025;-77
2022/04/05 06:23:14;;;;;;;19.05;12.20;;;;;;;8.84;100.00;100405.97;5052658;28;20400;-74
2022/04/05 06:25:39;;;;;;;21.02;12.60;;;;;;;8.84;100.00;100414.06;5054606;28;20048;-75
2022/04/05 06:28:07;;;;;;;18.65;13.00;;;;;;;8.87;100.00;100419.00;5053818;28;20032;-77
2022/04/05 06:30:34;;;;;;;19.88;12.10;;;;;;;8.86;100.00;100420.06;5053950;28;20475;-75
2022/04/05 06:33:09;;;;;;;22.75;12.13;;;;;;;8.91;100.00;100422.91;5054041;28;20110;-76
2022/04/05 06:35:36;;;;;;;22.20;11.57;;;;;;;8.95;100.00;100420.59;5053674;28;20040;-75
2022/04/05 06:38:02;;;;;;;20.15;11.63;;;;;;;8.95;100.00;100424.13;5055639;28;20032;-75
2022/04/05 06:40:27;;;;;;;18.45;11.48;;;;;;;8.98;100.00;100428.22;5053767;28;20163;-74
2022/04/05 06:42:53;;;;;;;19.20;10.82;;;;;;;8.98;100.00;100423.69;5053386;28;20029;-72
2022/04/05 06:45:19;;;;;;;17.52;10.32;;;;;;;8.99;100.00;100430.72;5052974;28;20029;-72
2022/04/05 06:47:45;;;;;;;17.10;10.38;;;;;;;9.02;100.00;100432.13;5053785;28;20025;-74
2022/04/05 06:50:12;;;;;;;16.42;10.02;;;;;;;9.05;100.00;100429.81;5053470;28;20029;-73
2022/04/05 06:52:39;;;;;;;14.98;9.93;;;;;;;9.07;100.00;100434.16;5053628;28;20044;-72
2022/04/05 06:55:06;;;;;;;18.95;10.07;;;;;;;9.08;100.00;100433.13;5053201;28;20086;-72
2022/04/05 06:57:31;;;;;;;18.17;9.90;;;;;;;9.07;100.00;100442.25;5053530;28;20025;-72
2022/04/05 06:59:57;;;;;;;16.10;9.70;;;;;;;9.04;100.00;100438.97;5046417;28;20026;-74
2022/04/05 07:02:22;;;;;;;16.00;10.00;;;;;;;9.08;100.00;100446.63;5037707;28;20038;-74
2022/04/05 07:04:47;;;;;;;14.90;9.38;;;;;;;9.08;100.00;100450.13;5048239;28;20371;-75
2022/04/05 07:07:13;;;;;;;17.95;9.38;;;;;;;9.04;100.00;100441.66;5032984;28;20038;-73
2022/04/05 07:09:38;;;;;;;20.15;9.70;;;;;;;9.08;100.00;100443.91;5032424;28;20128;-74
2022/04/05 07:12:04;;;;;;;17.08;9.50;;;;;;;9.07;100.00;100451.16;5033126;28;20037;-73
2022/04/05 07:14:29;;;;;;;18.02;9.80;;;;;;;9.08;100.00;100449.31;5034974;28;20416;-72
2022/04/05 07:16:54;;;;;;;15.98;8.18;;;;;;;9.09;100.00;100442.84;5053052;28;20124;-72
2022/04/05 07:19:20;;;;;;;16.95;9.15;;;;;;;9.05;100.00;100451.41;5052942;28;20383;-73
2022/04/05 07:21:45;;;;;;;17.15;8.82;;;;;;;9.10;100.00;100453.41;5053140;28;20104;-72
2022/04/05 07:24:10;;;;;;;20.15;9.02;;;;;;;9.08;100.00;100452.81;5052731;28;20067;-73
2022/04/05 07:26:36;;;;;;;18.67;8.70;;;;;;;9.08;100.00;100460.13;5033844;28;20033;-73
2022/04/05 07:29:01;;;;;;;15.73;7.47;;;;;;;9.12;100.00;100443.25;5033109;28;20449;-73
2022/04/05 07:31:26;;;;;;;13.82;8.65;;;;;;;9.13;100.00;100446.75;5032727;28;20021;-72
2022/04/05 07:33:51;;;;;;;14.52;7.80;;;;;;;9.08;100.00;100444.72;5031752;28;20040;-71
2022/04/05 07:36:17;;;;;;;13.27;7.65;;;;;;;9.14;100.00;100443.00;5046998;28;20545;-71
2022/04/05 07:38:42;;;;;;;13.27;8.10;;;;;;;9.13;100.00;100436.78;5052829;28;20025;-71
2022/04/05 07:41:07;;;;;;;13.45;7.30;;;;;;;9.17;100.00;100439.88;5051280;28;20045;-70
2022/04/05 07:43:33;;;;;;;15.02;7.45;;;;;;;9.20;100.00;100442.91;5052927;28;20037;-72
2022/04/05 07:45:58;;;;;;;13.00;7.45;;;;;;;9.21;100.00;100443.78;5039067;28;20038;-74
2022/04/05 07:48:26;;;;;;;12.48;7.25;;;;;;;9.22;100.00;100450.78;5032242;28;20034;-71
2022/04/05 07:50:52;;;;;;;16.05;7.75;;;;;;;9.23;100.00;100441.66;5032625;28;20039;-74
2022/04/05 07:53:17;;;;;;;17.77;7.40;;;;;;;9.25;100.00;100447.63;5032618;28;20055;-72
2022/04/05 07:55:43;;;;;;;16.90;8.02;;;;;;;9.21;100.00;100447.28;5042910;28;20392;-74
2022/04/05 07:58:09;;;;;;;12.80;7.55;;;;;;;9.23;100.00;100452.47;5052545;28;20029;-73
2022/04/05 08:00:34;;;;;;;15.35;7.38;;;;;;;9.29;100.00;100456.13;5044262;28;20516;-72
2022/04/05 08:03:00;;;;;;;16.13;7.30;;;;;;;9.25;100.00;100452.22;5035679;28;20407;-70
2022/04/05 08:05:27;;;;;;;13.70;7.65;;;;;;;9.29;100.00;100454.25;5040820;28;20047;-71
2022/04/05 08:07:53;;;;;;;14.30;6.70;;;;;;;9.30;100.00;100449.66;5052403;28;20468;-70
2022/04/05 08:10:18;;;;;;;13.68;7.05;;;;;;;9.33;100.00;100444.66;5037959;28;20035;-70
2022/04/05 08:12:46;;;;;;;13.80;6.65;;;;;;;9.31;100.00;100449.44;5034149;28;20515;-69
2022/04/05 08:15:13;;;;;;;15.45;7.10;;;;;;;9.37;100.00;100450.41;5032112;28;20029;-71
2022/04/05 08:17:38;;;;;;;13.02;7.38;;;;;;;9.32;100.00;100445.69;5033123;28;20116;-70
2022/04/05 08:20:05;;;;;;;12.95;6.53;;;;;;;9.35;100.00;100456.03;5052216;28;20108;-70
2022/04/05 08:22:30;;;;;;;12.85;7.40;;;;;;;9.44;100.00;100458.44;5052009;28;20029;-70
2022/04/05 08:24:56;;;;;;;15.95;6.70;;;;;;;9.46;100.00;100456.34;5047696;28;20025;-70
2022/04/05 08:27:21;;;;;;;12.48;6.65;;;;;;;9.46;100.00;100453.63;5049489;28;20021;-70
2022/04/05 08:29:46;;;;;;;13.68;6.43;;;;;;;9.51;100.00;100461.88;5052012;28;20029;-75
2022/04/05 08:32:11;;;;;;;13.65;6.82;;;;;;;9.47;100.00;100458.00;5051970;28;20090;-75
2022/04/05 08:34:41;;;;;;;11.63;6.32;;;;;;;9.51;100.00;100461.88;5047211;28;20037;-76
2022/04/05 08:37:08;;;;;;;12.18;5.50;;;;;;;9.54;100.00;100469.50;5039772;28;20111;-75
2022/04/05 08:39:34;;;;;;;11.23;6.18;;;;;;;9.60;100.00;100467.78;5051982;28;20112;-75
2022/04/05 08:41:59;;;;;;;11.02;5.80;;;;;;;9.55;100.00;100465.78;5052446;28;20071;-76
2022/04/05 08:44:25;;;;;;;9.98;5.75;;;;;;;9.60;100.00;100463.19;5051833;28;20036;-75
2022/04/05 08:46:51;;;;;;;10.18;6.80;;;;;;;9.61;100.00;100462.16;5046788;28;20017;-76
2022/04/05 08:49:18;;;;;;;11.20;6.38;;;;;;;9.63;100.00;100470.88;5031782;28;20461;-75
2022/04/05 08:51:44;;;;;;;7.05;6.07;;;;;;;9.66;100.00;100467.72;5032318;28;20033;-75
2022/04/05 08:54:09;;;;;;;10.07;6.57;;;;;;;9.66;100.00;100462.31;5032772;28;20090;-75
2022/04/05 08:56:34;;;;;;;13.60;6.15;;;;;;;9.68;100.00;100476.41;5034557;28;20120;-76
2022/04/05 08:58:59;;;;;;;8.50;5.50;;;;;;;9.70;100.00;100471.59;5052048;28;20048;-76
2022/04/05 09:01:29;;;;;;;12.38;5.60;;;;;;;9.70;100.00;100466.19;5048862;28;20037;-75
2022/04/05 09:03:59;;;;;;;14.65;6.10;;;;;;;9.67;100.00;100474.75;5051097;28;20134;-75
2022/04/05 09:06:27;;;;;;;7.65;6.10;;;;;;;9.66;100.00;100473.13;5050724;28;20499;-75
2022/04/05 09:08:58;;;;;;;16.08;6.45;;;;;;;9.72;100.00;100477.59;5034262;28;20032;-75
2022/04/05 09:11:27;;;;;;;11.27;6.47;;;;;;;9.70;100.00;100477.00;5034465;28;20029;-75
2022/04/05 09:13:58;;;;;;;10.05;6.50;;;;;;;9.74;100.00;100475.50;5051660;28;20487;-75
2022/04/05 09:16:32;;;;;;;11.40;6.70;;;;;;;9.80;100.00;100484.56;5054682;28;20123;-76
2022/04/05 09:19:10;;;;;;;12.32;6.68;;;;;;;9.74;100.00;100486.31;5036447;28;20531;-75
2022/04/05 09:21:58;;;;;;;10.13;6.88;;;;;;;9.76;100.00;100476.06;5045111;28;20071;-75
2022/04/05 09:24:34;;;;;;;10.95;6.85;;;;;;;9.76;100.00;100492.28;5053587;28;20032;-77
2022/04/05 09:26:59;;;;;;;11.63;7.20;;;;;;;9.80;100.00;100478.31;5055466;28;20021;-74
2022/04/05 09:29:44;;;;;;;13.60;7.25;;;;;;;9.83;100.00;100488.66;5055425;28;20032;-75
2022/04/05 09:32:30;;;;;;;17.30;7.93;;;;;;;9.85;100.00;100492.81;5055542;28;20028;-75
2022/04/05 09:34:55;;;;;;;14.82;7.38;;;;;;;9.88;100.00;100488.81;5055788;28;20064;-79
2022/04/05 09:37:35;;;;;;;13.02;8.07;;;;;;;9.89;100.00;100493.19;5041853;28;20104;-75
2022/04/05 09:40:22;;;;;;;11.68;7.65;;;;;;;9.87;100.00;100500.69;5036438;28;20038;-83
2022/04/05 09:43:03;;;;;;;11.82;8.00;;;;;;;9.90;100.00;100494.81;5036621;28;20515;-81
2022/04/05 09:45:58;;;;;;;12.20;7.22;;;;;;;9.93;100.00;100497.91;5037326;28;20048;-79
2022/04/05 09:48:29;;;;;;;11.55;7.70;;;;;;;9.88;100.00;100499.63;5039720;28;20493;-79
2022/04/05 09:51:06;;;;;;;13.35;7.57;;;;;;;9.88;100.00;100503.16;5042341;28;20034;-78
2022/04/05 09:53:34;;;;;;;16.75;8.05;;;;;;;9.88;100.00;100496.94;5042797;28;20487;-77
2022/04/05 09:56:10;;;;;;;11.30;8.35;;;;;;;9.89;100.00;100493.19;5037456;28;20038;-77
2022/04/05 09:58:43;;;;;;;11.27;7.40;;;;;;;9.96;100.00;100504.72;5050768;28;20127;-78
2022/04/05 10:01:11;;;;;;;11.68;7.45;;;;;;;9.94;100.00;100493.31;5031701;28;20021;-77
2022/04/05 10:03:39;;;;;;;13.38;7.82;;;;;;;9.93;100.00;100497.91;5034681;28;20045;-77
2022/04/05 10:06:05;;;;;;;15.48;8.10;;;;;;;9.93;100.00;100499.75;5034545;28;20033;-77
2022/04/05 10:08:32;;;;;;;13.50;7.50;;;;;;;9.91;100.00;100497.28;5034856;28;20466;-77
2022/04/05 10:10:58;;;;;;;13.60;7.57;;;;;;;9.93;100.00;100499.75;5033848;28;20045;-79
2022/04/05 10:13:23;;;;;;;13.82;6.63;;;;;;;9.95;100.00;100505.78;5034715;28;20029;-78
2022/04/05 10:15:51;;;;;;;14.18;7.22;;;;;;;9.96;100.00;100499.31;5038808;28;20116;-78
2022/04/05 10:18:20;;;;;;;13.15;6.57;;;;;;;10.02;100.00;100498.38;5054349;28;20108;-78
2022/04/05 10:20:48;;;;;;;10.15;6.38;;;;;;;10.06;100.00;100504.16;5054624;28;20033;-78
2022/04/05 10:23:18;;;;;;;11.02;6.00;;;;;;;10.07;100.00;100503.94;5054789;28;20116;-78
2022/04/05 10:25:43;;;;;;;11.85;6.28;;;;;;;10.14;100.00;100500.31;5055052;28;20052;-78
2022/04/05 10:28:09;;;;;;;11.18;5.88;;;;;;;10.20;100.00;100502.09;5053236;28;20388;-77
2022/04/05 10:30:41;;;;;;;12.40;6.10;;;;;;;10.22;100.00;100497.25;5053738;28;20037;-77
2022/04/05 10:33:23;;;;;;;;;;;;;;;10.29;100.00;100498.81;5053740;28;20406;-78
2022/04/05 10:35:53;;;;;;;11.82;6.03;;;;;;;10.37;100.00;100504.97;5052413;28;19916;-77
2022/04/05 10:38:20;;;;;;;12.73;5.95;;;;;;;10.33;100.00;100499.22;5034083;28;20223;-77
2022/04/05 10:41:16;;;;;;;11.13;6.38;;;;;;;10.34;100.00;100503.56;5032814;28;20057;-78
2022/04/05 10:43:42;;;;;;;9.00;5.80;;;;;;;10.42;100.00;100492.41;5056654;28;20053;-77
2022/04/05 10:46:09;;;;;;;8.98;5.80;;;;;;;10.40;100.00;100499.09;5052734;28;20481;-76
2022/04/05 10:48:34;;;;;;;9.00;5.40;;;;;;;10.44;100.00;100492.19;5052055;28;20408;-76
2022/04/05 10:50:59;;;;;;;12.05;5.38;;;;;;;10.45;100.00;100496.53;5053819;28;20025;-77
2022/04/05 10:54:17;;;;;;;8.17;5.10;;;;;;;10.53;100.00;100503.50;5053218;28;20032;-77
2022/04/05 10:56:29;;;;;;;6.85;4.72;;;;;;;10.57;100.00;100493.84;5052661;28;20327;-74
2022/04/05 10:58:54;;;;;;;9.73;5.00;;;;;;;10.60;100.00;100498.78;5052054;28;20384;-78
2022/04/05 11:01:22;;;;;;;8.40;4.67;;;;;;;10.60;100.00;100505.03;5050810;28;20025;-76
2022/04/05 11:04:14;;;;;;;7.38;4.90;;;;;;;10.71;99.79;100495.25;5052903;28;20348;-76
2022/04/05 11:07:09;;;;;;;;;;;;;;;10.76;99.96;100492.66;5046559;28;20808;-77
2022/04/05 11:09:40;;;;;;;9.25;5.05;;;;;;;10.71;99.76;100489.84;5033149;28;19916;-77
2022/04/05 11:12:11;;;;;;;6.07;4.25;;;;;;;10.72;99.56;100496.91;5033439;28;20029;-77